createdAt,value
2023-01-20T00:01:26.250Z,118.85
2023-01-20T00:04:35.433Z,109.50
2023-01-20T00:07:44.609Z,113.53
2023-01-20T00:10:53.883Z,122.20
2023-01-20T00:14:04.620Z,113.10
2023-01-20T00:17:13.843Z,96.65
2023-01-20T00:20:23.136Z,108.05
2023-01-20T00:23:32.919Z,112.43
2023-01-20T00:26:42.240Z,112.68
2023-01-20T00:29:53.229Z,113.78
2023-01-20T00:33:02.509Z,120.57
2023-01-20T00:36:12.778Z,118.32
2023-01-20T00:39:22.145Z,116.03
2023-01-20T00:42:31.422Z,126.57
2023-01-20T00:45:42.510Z,121.80
2023-01-20T00:48:51.730Z,120.57
2023-01-20T00:52:00.902Z,133.90
2023-01-20T00:55:11.375Z,104.93
2023-01-20T00:58:20.865Z,110.82
2023-01-20T01:01:31.573Z,120.72
2023-01-20T01:04:40.825Z,103.93
2023-01-20T01:07:50.202Z,112.95
2023-01-20T01:10:59.600Z,103.37
2023-01-20T01:14:09.028Z,113.05
2023-01-20T01:17:19.769Z,103.43
2023-01-20T01:20:29.585Z,98.15
2023-01-20T01:23:38.859Z,101.68
2023-01-20T01:26:48.183Z,107.00
2023-01-20T01:29:57.594Z,106.10
2023-01-20T01:33:08.452Z,118.07
2023-01-20T01:36:18.759Z,118.57
2023-01-20T01:39:29.020Z,109.00
2023-01-20T01:42:38.390Z,105.70
2023-01-20T01:45:49.153Z,109.93
2023-01-20T01:49:00.449Z,107.47
2023-01-20T01:52:11.088Z,102.45
2023-01-20T01:55:21.079Z,86.50
2023-01-20T01:58:33.738Z,86.85
2023-01-20T02:01:45.606Z,87.43
2023-01-20T02:04:57.117Z,86.30
2023-01-20T02:08:07.116Z,89.32
2023-01-20T02:11:16.455Z,98.03
2023-01-20T02:14:27.662Z,88.90
2023-01-20T02:17:41.857Z,92.85
2023-01-20T02:21:35.669Z,113.63
2023-01-20T02:25:32.205Z,86.30
2023-01-20T02:29:08.948Z,97.07
2023-01-20T02:32:38.688Z,83.75
2023-01-20T02:35:51.370Z,96.10
2023-01-20T02:39:04.898Z,80.25
2023-01-20T02:42:20.136Z,82.82
2023-01-20T02:45:33.818Z,117.10
2023-01-20T02:48:48.151Z,101.00
2023-01-20T02:52:01.401Z,80.43
2023-01-20T02:55:13.015Z,80.35
2023-01-20T02:58:25.380Z,97.38
2023-01-20T03:01:37.138Z,107.30
2023-01-20T03:04:53.228Z,117.85
2023-01-20T03:08:05.719Z,118.07
2023-01-20T03:11:15.296Z,80.95
2023-01-20T03:14:24.958Z,92.97
2023-01-20T03:17:34.517Z,67.50
2023-01-20T03:20:45.246Z,84.67
2023-01-20T03:23:56.242Z,87.28
2023-01-20T03:27:05.755Z,91.43
2023-01-20T03:30:16.034Z,71.40
2023-01-20T03:33:25.655Z,96.60
2023-01-20T03:36:36.593Z,108.17
2023-01-20T03:39:45.807Z,126.47
2023-01-20T03:42:58.920Z,131.30
2023-01-20T03:46:14.117Z,113.30
2023-01-20T03:49:28.558Z,129.95
2023-01-20T03:52:47.756Z,113.07
2023-01-20T03:56:01.707Z,127.93
2023-01-20T03:59:13.166Z,125.53
2023-01-20T04:02:24.648Z,133.32
2023-01-20T04:05:34.208Z,118.50
2023-01-20T04:08:47.528Z,120.00
2023-01-20T04:11:57.003Z,99.63
2023-01-20T04:15:08.219Z,99.93
2023-01-20T04:18:19.585Z,112.80
2023-01-20T04:21:32.962Z,110.32
2023-01-20T04:24:47.111Z,108.07
2023-01-20T04:27:56.377Z,105.88
2023-01-20T04:31:05.930Z,106.53
2023-01-20T04:34:16.551Z,73.50
2023-01-20T04:37:26.268Z,104.70
2023-01-20T04:40:37.078Z,79.45
2023-01-20T04:43:46.580Z,118.10
2023-01-20T04:46:58.368Z,117.20
2023-01-20T04:50:12.252Z,134.43
2023-01-20T04:53:21.577Z,118.15
2023-01-20T04:56:32.244Z,118.45
2023-01-20T04:59:41.481Z,147.35
2023-01-20T05:02:50.756Z,129.63
2023-01-20T05:06:00.134Z,129.30
2023-01-20T05:09:10.882Z,164.85
2023-01-20T05:12:21.591Z,164.10
2023-01-20T05:15:30.963Z,158.80
2023-01-20T05:18:40.284Z,170.50
2023-01-20T05:21:49.575Z,128.35
2023-01-20T05:24:58.757Z,279.25
2023-01-20T05:28:09.688Z,281.20
2023-01-20T05:31:19.378Z,265.27
2023-01-20T05:34:28.778Z,198.30
2023-01-20T05:37:38.011Z,182.63
2023-01-20T05:40:47.587Z,228.85
2023-01-20T05:43:58.202Z,247.47
2023-01-20T05:47:07.511Z,258.25
2023-01-20T05:50:17.172Z,213.32
2023-01-20T05:53:26.608Z,210.32
2023-01-20T05:56:35.956Z,250.37
2023-01-20T05:59:47.857Z,271.13
2023-01-20T06:02:57.269Z,216.25
2023-01-20T06:06:09.156Z,192.57
2023-01-20T06:09:18.444Z,242.80
2023-01-20T06:12:27.777Z,196.90
2023-01-20T06:15:38.482Z,250.57
2023-01-20T06:18:47.792Z,237.82
2023-01-20T06:21:57.038Z,181.07
2023-01-20T06:25:07.007Z,204.45
2023-01-20T06:28:16.312Z,196.93
2023-01-20T06:31:28.700Z,205.57
2023-01-20T06:34:38.019Z,242.77
2023-01-20T06:37:47.317Z,187.68
2023-01-20T06:41:01.563Z,216.80
2023-01-20T06:44:10.802Z,188.93
2023-01-20T06:47:21.496Z,183.75
2023-01-20T06:50:30.774Z,200.02
2023-01-20T06:53:40.377Z,183.88
2023-01-20T06:56:49.666Z,152.87
2023-01-20T06:59:59.489Z,169.95
2023-01-20T07:03:11.902Z,167.95
2023-01-20T07:06:27.967Z,169.07
2023-01-20T07:09:37.410Z,167.55
2023-01-20T07:12:46.578Z,144.63
2023-01-20T07:15:55.885Z,138.32
2023-01-20T07:19:07.156Z,146.02
2023-01-20T07:22:16.381Z,160.57
2023-01-20T07:25:25.708Z,122.82
2023-01-20T07:28:35.310Z,170.68
2023-01-20T07:31:44.694Z,118.15
2023-01-20T07:34:55.614Z,132.15
2023-01-20T07:38:05.225Z,112.75
2023-01-20T07:41:16.496Z,114.37
2023-01-20T07:44:40.979Z,106.90
2023-01-20T07:47:50.353Z,128.32
2023-01-20T07:51:04.406Z,107.15
2023-01-20T07:54:13.791Z,116.72
2023-01-20T07:57:23.362Z,108.03
2023-01-20T08:00:32.721Z,114.70
2023-01-20T08:03:42.481Z,96.13
2023-01-20T08:06:53.237Z,76.55
2023-01-20T08:10:02.621Z,94.55
2023-01-20T08:13:12.668Z,98.43
2023-01-20T08:16:22.195Z,86.40
2023-01-20T08:19:31.662Z,94.93
2023-01-20T08:22:42.417Z,89.88
2023-01-20T08:25:52.144Z,89.22
2023-01-20T08:29:04.483Z,93.10
2023-01-20T08:32:13.797Z,101.60
2023-01-20T08:35:23.025Z,95.18
2023-01-20T08:38:33.740Z,84.25
2023-01-20T08:41:45.142Z,81.15
2023-01-20T08:44:54.743Z,79.97
2023-01-20T08:48:04.060Z,79.97
2023-01-20T08:51:16.057Z,70.78
2023-01-20T08:54:29.474Z,72.07
2023-01-20T08:57:38.879Z,74.95
2023-01-20T09:00:48.218Z,73.70
2023-01-20T09:04:05.777Z,69.38
2023-01-20T09:07:15.736Z,73.65
2023-01-20T09:10:26.453Z,51.90
2023-01-20T09:13:36.042Z,68.28
2023-01-20T09:16:45.343Z,70.57
2023-01-20T09:19:16.388Z,71.05
2023-01-20T09:21:45.653Z,63.42
2023-01-20T09:24:14.938Z,62.17
2023-01-20T09:26:45.510Z,58.78
2023-01-20T09:29:16.237Z,68.32
2023-01-20T09:31:46.376Z,69.30
2023-01-20T09:34:19.920Z,67.25
2023-01-20T09:36:52.491Z,58.47
2023-01-20T09:39:39.090Z,56.17
2023-01-20T09:42:42.652Z,47.65
2023-01-20T09:45:24.793Z,50.47
2023-01-20T09:47:57.594Z,51.00
2023-01-20T09:50:58.920Z,55.88
2023-01-20T09:53:46.420Z,47.95
2023-01-20T09:56:18.419Z,50.10
2023-01-20T09:58:53.403Z,45.63
2023-01-20T10:01:30.964Z,43.30
2023-01-20T10:04:04.975Z,45.08
2023-01-20T10:06:39.197Z,44.55
2023-01-20T10:09:12.942Z,43.47
2023-01-20T10:11:45.085Z,41.17
2023-01-20T10:14:20.169Z,37.22
2023-01-20T10:16:52.449Z,39.40
2023-01-20T10:19:27.377Z,38.38
2023-01-20T10:22:03.408Z,39.22
2023-01-20T10:24:35.164Z,39.92
2023-01-20T10:27:06.178Z,39.65
2023-01-20T10:29:39.725Z,37.33
2023-01-20T10:32:13.245Z,39.95
2023-01-20T10:34:46.801Z,42.42
2023-01-20T10:37:16.923Z,42.70
2023-01-20T10:39:50.754Z,37.53
2023-01-20T10:42:21.116Z,40.72
2023-01-20T10:44:53.772Z,42.95
2023-01-20T10:47:27.474Z,36.47
2023-01-20T10:50:38.895Z,43.70
2023-01-20T10:53:34.131Z,53.08
2023-01-20T10:56:17.241Z,61.28
2023-01-20T10:58:47.936Z,54.10
2023-01-20T11:01:22.072Z,48.95
2023-01-20T11:03:51.875Z,46.50
2023-01-20T11:06:23.066Z,48.78
2023-01-20T11:08:53.711Z,46.13
2023-01-20T11:11:24.749Z,44.75
2023-01-20T11:13:54.968Z,49.85
2023-01-20T11:16:29.028Z,56.28
2023-01-20T11:19:00.521Z,51.05
2023-01-20T11:21:31.080Z,41.88
2023-01-20T11:24:01.716Z,43.10
2023-01-20T11:26:34.096Z,44.20
2023-01-20T11:29:05.203Z,47.63
2023-01-20T11:31:43.066Z,42.60
2023-01-20T11:34:24.589Z,40.03
2023-01-20T11:37:27.608Z,42.60
2023-01-20T11:40:02.734Z,43.10
2023-01-20T11:42:37.864Z,41.55
2023-01-20T11:45:26.716Z,47.22
2023-01-20T11:48:06.787Z,47.35
2023-01-20T11:50:38.203Z,44.13
2023-01-20T11:53:19.098Z,40.38
2023-01-20T11:55:53.544Z,40.38
2023-01-20T11:58:24.648Z,45.17
2023-01-20T12:01:01.034Z,47.97
2023-01-20T12:03:56.885Z,41.22
2023-01-20T12:06:29.023Z,44.80
2023-01-20T12:09:03.439Z,36.35
2023-01-20T12:11:36.587Z,37.60
2023-01-20T12:14:23.613Z,40.70
2023-01-20T12:17:01.616Z,42.10
2023-01-20T12:19:39.533Z,40.25
2023-01-20T12:22:15.022Z,37.03
2023-01-20T12:25:13.623Z,35.38
2023-01-20T12:27:47.110Z,36.90
2023-01-20T12:30:33.792Z,39.05
2023-01-20T12:33:03.684Z,34.45
2023-01-20T12:35:43.826Z,42.22
2023-01-20T12:38:22.812Z,34.03
2023-01-20T12:40:53.738Z,34.40
2023-01-20T12:43:44.902Z,33.05
2023-01-20T12:46:33.036Z,31.40
2023-01-20T12:49:19.243Z,38.83
2023-01-20T12:52:01.702Z,42.97
2023-01-20T12:54:50.239Z,44.92
2023-01-20T12:57:30.521Z,45.13
2023-01-20T13:00:12.753Z,45.58
2023-01-20T13:02:58.288Z,42.65
2023-01-20T13:05:47.816Z,40.40
2023-01-20T13:08:22.913Z,37.58
2023-01-20T13:11:00.902Z,31.75
2023-01-20T13:13:56.269Z,32.40
2023-01-20T13:16:34.385Z,32.30
2023-01-20T13:19:09.938Z,26.95
2023-01-20T13:21:41.290Z,25.63
2023-01-20T13:24:20.108Z,25.10
2023-01-20T13:26:51.940Z,29.67
2023-01-20T13:29:44.388Z,23.00
2023-01-20T13:32:34.295Z,25.05
2023-01-20T13:37:39.954Z,30.35
2023-01-20T13:40:48.144Z,32.35
2023-01-20T13:44:01.059Z,35.38
2023-01-20T13:46:51.408Z,35.78
2023-01-20T13:51:56.422Z,33.60
2023-01-20T13:54:52.484Z,21.75
2023-01-20T13:57:45.146Z,32.90
2023-01-20T14:00:16.691Z,34.55
2023-01-20T14:02:47.971Z,31.80
2023-01-20T14:05:29.899Z,31.52
2023-01-20T14:07:59.339Z,31.83
2023-01-20T14:10:29.113Z,33.67
2023-01-20T14:12:58.189Z,32.85
2023-01-20T14:15:37.098Z,33.97
2023-01-20T14:18:14.947Z,33.60
2023-01-20T14:20:46.556Z,28.98
2023-01-20T14:23:30.590Z,38.42
2023-01-20T14:26:00.765Z,32.53
2023-01-20T14:28:29.928Z,28.00
2023-01-20T14:31:19.850Z,28.50
2023-01-20T14:33:57.389Z,29.92
2023-01-20T14:36:28.532Z,25.42
2023-01-20T14:38:59.382Z,27.67
2023-01-20T14:41:33.930Z,28.40
2023-01-20T14:44:03.941Z,26.50
2023-01-20T14:46:34.408Z,24.27
2023-01-20T14:49:06.089Z,22.55
2023-01-20T14:51:35.732Z,19.30
2023-01-20T14:54:36.123Z,18.30
2023-01-20T15:00:22.351Z,22.65
2023-01-20T15:03:09.571Z,18.50
2023-01-20T15:05:42.760Z,22.63
2023-01-20T15:08:25.285Z,20.73
2023-01-20T15:11:22.201Z,20.50
2023-01-20T15:14:11.076Z,27.48
2023-01-20T15:16:47.610Z,25.17
2023-01-20T15:19:34.679Z,21.25
2023-01-20T15:22:19.286Z,25.38
2023-01-20T15:24:49.672Z,27.38
2023-01-20T15:27:27.176Z,26.17
2023-01-20T15:30:05.741Z,25.98
2023-01-20T15:32:34.720Z,25.95
2023-01-20T15:35:04.134Z,29.08
2023-01-20T15:37:34.288Z,29.10
2023-01-20T15:40:03.424Z,32.47
2023-01-20T15:42:32.412Z,31.00
2023-01-20T15:45:01.537Z,33.35
2023-01-20T15:47:31.452Z,37.97
2023-01-20T15:50:00.458Z,33.58
2023-01-20T15:52:29.167Z,39.25
2023-01-20T15:54:59.742Z,36.22
2023-01-20T15:57:28.964Z,36.97
2023-01-20T15:59:58.221Z,38.55
2023-01-20T16:02:27.402Z,40.75
2023-01-20T16:04:56.103Z,40.08
2023-01-20T16:07:25.402Z,46.03
2023-01-20T16:09:54.542Z,40.78
2023-01-20T16:12:25.131Z,41.25
2023-01-20T16:14:54.361Z,44.95
2023-01-20T16:17:23.945Z,48.72
2023-01-20T16:19:52.684Z,43.97
2023-01-20T16:22:21.647Z,43.88
2023-01-20T16:24:51.394Z,46.78
2023-01-20T16:27:21.665Z,41.17
2023-01-20T16:29:52.533Z,41.72
2023-01-20T16:32:22.626Z,39.08
2023-01-20T16:34:51.368Z,40.35
2023-01-20T16:37:20.388Z,29.88
2023-01-20T16:39:49.439Z,31.67
2023-01-20T16:42:18.695Z,32.60
2023-01-20T16:44:47.753Z,31.63
2023-01-20T16:47:18.288Z,30.20
2023-01-20T16:49:46.953Z,23.20
2023-01-20T16:52:16.044Z,23.52
2023-01-20T16:54:45.117Z,22.20
2023-01-20T16:57:14.228Z,21.15
2023-01-20T16:59:43.504Z,18.83
2023-01-20T17:02:12.647Z,24.98
2023-01-20T17:04:42.878Z,20.65
2023-01-20T17:07:11.975Z,23.27
2023-01-20T17:09:42.159Z,26.08
2023-01-20T17:12:11.324Z,27.48
2023-01-20T17:14:40.452Z,25.63
2023-01-20T17:17:09.534Z,26.25
2023-01-20T17:19:38.369Z,23.52
2023-01-20T17:22:08.963Z,25.20
2023-01-20T17:24:39.360Z,29.90
2023-01-20T17:27:09.189Z,27.80
2023-01-20T17:29:38.814Z,29.15
2023-01-20T17:32:07.938Z,24.25
2023-01-20T17:34:36.511Z,22.65
2023-01-20T17:37:05.541Z,26.73
2023-01-20T17:39:37.392Z,23.98
2023-01-20T17:42:06.648Z,24.80
2023-01-20T17:44:37.726Z,22.23
2023-01-20T17:47:07.005Z,22.23
2023-01-20T17:49:35.774Z,22.92
2023-01-20T17:52:05.031Z,23.15
2023-01-20T17:54:35.599Z,20.83
2023-01-20T17:57:04.789Z,24.73
2023-01-20T17:59:33.815Z,21.92
2023-01-20T18:02:02.970Z,21.27
2023-01-20T18:04:32.231Z,24.52
2023-01-20T18:07:01.418Z,21.27
2023-01-20T18:09:30.627Z,20.98
2023-01-20T18:12:01.350Z,22.63
2023-01-20T18:14:30.586Z,19.90
2023-01-20T18:16:59.761Z,17.15
2023-01-20T18:19:28.562Z,17.23
2023-01-20T18:21:57.556Z,19.70
2023-01-20T18:24:26.709Z,17.13
2023-01-20T18:26:57.793Z,20.33
2023-01-20T18:29:30.243Z,20.83
2023-01-20T18:31:59.326Z,18.13
2023-01-20T18:34:28.395Z,21.58
2023-01-20T18:36:57.546Z,19.23
2023-01-20T18:39:27.368Z,18.38
2023-01-20T18:41:56.538Z,23.42
2023-01-20T18:44:25.655Z,19.38
2023-01-20T18:46:55.946Z,20.02
2023-01-20T18:49:24.977Z,22.55
2023-01-20T18:51:54.107Z,25.27
2023-01-20T18:54:25.022Z,24.45
2023-01-20T18:56:54.171Z,24.23
2023-01-20T18:59:23.308Z,28.25
2023-01-20T19:01:52.176Z,21.25
2023-01-20T19:04:22.612Z,27.08
2023-01-20T19:06:51.788Z,22.17
2023-01-20T19:09:20.777Z,19.35
2023-01-20T19:11:49.947Z,21.20
2023-01-20T19:14:19.066Z,23.42
2023-01-20T19:16:49.451Z,16.30
2023-01-20T19:19:19.308Z,18.13
2023-01-20T19:21:51.910Z,20.15
2023-01-20T19:24:22.567Z,19.00
2023-01-20T19:26:51.696Z,18.13
2023-01-20T19:29:20.837Z,17.00
2023-01-20T19:31:52.075Z,17.75
2023-01-20T19:34:21.280Z,16.98
2023-01-20T19:36:51.726Z,15.63
2023-01-20T19:39:20.816Z,16.10
2023-01-20T19:41:49.819Z,14.85
2023-01-20T19:44:18.838Z,16.92
2023-01-20T19:46:47.561Z,15.20
2023-01-20T19:49:16.689Z,17.25
2023-01-20T19:51:46.144Z,15.98
2023-01-20T19:54:16.918Z,16.45
2023-01-20T19:56:46.255Z,15.77
2023-01-20T19:59:15.245Z,14.48
2023-01-20T20:01:43.906Z,14.82
2023-01-20T20:04:14.138Z,14.13
2023-01-20T20:09:20.251Z,14.05
2023-01-20T20:11:50.295Z,12.50
2023-01-20T20:14:21.286Z,13.07
2023-01-20T20:16:50.541Z,17.95
2023-01-20T20:19:20.613Z,13.38
2023-01-20T20:21:49.621Z,12.07
2023-01-20T20:24:20.294Z,13.02
2023-01-20T20:26:49.557Z,12.25
2023-01-20T20:29:19.956Z,11.67
2023-01-20T20:31:48.961Z,12.75
2023-01-20T20:34:20.274Z,15.15
2023-01-20T20:36:49.537Z,15.05
2023-01-20T20:39:20.484Z,17.92
2023-01-20T20:41:49.690Z,18.35
2023-01-20T20:44:18.791Z,14.45
2023-01-20T20:46:48.662Z,15.15
2023-01-20T20:51:46.681Z,17.33
2023-01-20T20:54:17.198Z,15.27
2023-01-20T20:56:48.336Z,17.10
2023-01-20T20:59:19.600Z,18.70
2023-01-20T21:01:48.388Z,20.10
2023-01-20T21:04:17.740Z,18.52
2023-01-20T21:06:46.803Z,20.52
2023-01-20T21:09:15.732Z,21.42
2023-01-20T21:11:44.759Z,18.13
2023-01-20T21:14:15.493Z,16.13
2023-01-20T21:16:44.875Z,19.02
2023-01-20T21:19:13.955Z,16.30
2023-01-20T21:21:43.083Z,16.73
2023-01-20T21:24:13.975Z,13.52
2023-01-20T21:26:43.225Z,14.18
2023-01-20T21:29:12.648Z,13.00
2023-01-20T21:31:42.874Z,14.88
2023-01-20T21:34:14.768Z,12.73
2023-01-20T21:36:44.120Z,11.70
2023-01-20T21:39:16.956Z,11.90
2023-01-20T21:41:46.102Z,12.75
2023-01-20T21:44:32.483Z,10.25
2023-01-20T21:47:04.147Z,11.63
2023-01-20T21:49:50.516Z,12.63
2023-01-20T21:52:38.637Z,12.00
2023-01-20T21:55:09.082Z,15.40
2023-01-20T21:57:38.778Z,12.32
2023-01-20T22:00:09.885Z,14.50
2023-01-20T22:02:45.001Z,16.75
2023-01-20T22:05:14.470Z,14.05
2023-01-20T22:07:43.080Z,13.43
2023-01-20T22:10:13.053Z,12.80
2023-01-20T22:12:42.040Z,8.63
2023-01-20T22:15:11.782Z,10.80
2023-01-20T22:17:41.540Z,10.65
2023-01-20T22:20:13.120Z,10.73
2023-01-20T22:22:41.828Z,12.77
2023-01-20T22:25:11.321Z,9.68
2023-01-20T22:27:40.468Z,10.80
2023-01-20T22:30:10.732Z,12.73
2023-01-20T22:35:08.975Z,9.88
2023-01-20T22:37:39.029Z,8.10
2023-01-20T22:40:08.703Z,9.90
2023-01-20T22:42:37.710Z,12.95
2023-01-20T22:45:07.757Z,13.13
2023-01-20T22:47:36.715Z,12.98
2023-01-20T22:50:07.950Z,15.00
2023-01-20T22:52:36.541Z,15.85
2023-01-20T22:55:07.900Z,14.23
2023-01-20T22:57:36.903Z,15.43
2023-01-20T23:00:08.050Z,16.85
2023-01-20T23:02:38.854Z,16.52
2023-01-20T23:05:08.258Z,15.60
2023-01-20T23:07:38.637Z,15.48
2023-01-20T23:10:30.840Z,22.23
2023-01-20T23:12:59.917Z,17.60
2023-01-20T23:15:28.870Z,20.25
2023-01-20T23:17:57.938Z,18.38
2023-01-20T23:20:28.322Z,17.63
2023-01-20T23:22:57.121Z,21.45
2023-01-20T23:25:27.739Z,20.58
2023-01-20T23:27:56.867Z,22.17
2023-01-20T23:30:26.714Z,21.65
2023-01-20T23:32:55.813Z,21.70
2023-01-20T23:35:24.891Z,23.10
2023-01-20T23:37:53.625Z,21.70
2023-01-20T23:40:23.124Z,15.88
2023-01-20T23:42:53.797Z,20.48
2023-01-20T23:45:22.816Z,21.63
2023-01-20T23:47:51.805Z,22.33
2023-01-20T23:50:20.985Z,21.90
2023-01-20T23:52:49.596Z,21.85
2023-01-20T23:55:18.815Z,20.45
2023-01-20T23:57:47.904Z,24.13
